Airfield :
LOGIN :

Register | Disclaimer

   EN    FR    IT 

 










Legend :    VFR   Marginal VFR   IFR   Intensive IFR   Very Intensive IFR
Visi :
Ceiling :
>= 8 km
>= 3000ft
5 to 8 km
1000 to 3000 ft
1500m to 5 km
500 to 1000 ft
800 to 1500m
200 to 500 ft
< 800m
< 200 ft
Symbols :   Thunderstorms  Fog  Heavy snow  Heavy precipitations  Wind > 20 kt
SIGMETs :     Misc.  Thunderstorms  Icing  Turbulence  Mountain Waves  Volcanic Ashes







- Airport Elevation : 1079 ft


ETIK - Illesheim Air Base

CURRENT METAR :
  • 190158Z AUTO 22012KT 9999 BKN011 OVC017 02/02 A2996 RMK AO2 RAE46 SLP159 P0003 T00220022 $

EXPIRED METARs :
  • 190146Z AUTO 23012KT 9999 BKN012 OVC021 02/02 A2997 RMK AO2 RAE46 SLP163 $
  • 190143Z AUTO 23013KT 9999 -RA BKN012 OVC023 02/02 A2997 RMK AO2 CIG 012V016 SLP163
  • 190058Z AUTO 24013KT 9999 -RA FEW008 OVC018 03/03 A2998 RMK AO2 UPB22E38RAB38 SLP166 P0002 T00260026 $
  • 190055Z AUTO 23012KT 9999 -RA FEW010 OVC018 03/03 A2998 RMK AO2 UPB22E38RAB38 SLP166 $
  • 190022Z AUTO 24020G23KT 9999 UP FEW021 BKN035 03/03 A2999 RMK AO2 UPB22 SLP169 $
  • 182358Z AUTO 24018G24KT 9999 FEW022 BKN031 OVC041 04/02 A2999 RMK AO2 PK WND 24028/17 SLP168 T00380017 10039 20036 57019 $

Expired Forecast.
No reported NOTAMs for that airfield.



MET'MAP, your aeronautical weather chart ! - Copyright ORBIFLY December 2007 - Disclaimer

ORBIFLY MET'MAP TEAM :

Programming & Development : Alexandra Zaïnal
Concept & Development : Baudouin d'Aumeries
Co-Development & Prog : Marc-Olivier Méhu
Technical & hardware support : Manuel Goepfert

Contact : metmap@orbifly.com




SOURCES & CREDITS :

   NOAA